Time;durP1;ratioP1;P1;durP2;ratioP2;P2;SDS_P1;SDS_P2;PMS_P1;PMS_P2;Temp;Humidity;BMP_temperature;BMP_pressure;BME280_temperature;BME280_humidity;BME280_pressure;Samples;Min_cycle;Max_cycle;Signal;HPM_P1;HPM_P2
2021/07/04 00:00:30;;;;;;;20.88;19.48;;;;;;;14.98;72.61;93257.69;5046018;28;20033;-51
2021/07/04 00:02:57;;;;;;;21.63;20.38;;;;;;;14.99;72.25;93250.78;5046952;28;20498;-51
2021/07/04 00:05:29;;;;;;;19.92;18.45;;;;;;;14.92;73.01;93250.94;5030453;28;20033;-51
2021/07/04 00:07:55;;;;;;;20.20;18.90;;;;;;;14.96;72.47;93251.22;5042513;28;20029;-49
2021/07/04 00:10:25;;;;;;;22.02;20.55;;;;;;;14.94;73.00;93246.22;5035491;28;20048;-50
2021/07/04 00:12:51;;;;;;;21.23;19.80;;;;;;;14.84;72.75;93248.28;5033907;28;20025;-50
2021/07/04 00:15:20;;;;;;;22.08;20.45;;;;;;;14.83;73.00;93234.97;5050207;28;20060;-50
2021/07/04 00:17:46;;;;;;;21.98;20.50;;;;;;;14.87;73.45;93241.56;5050083;28;20115;-50
2021/07/04 00:20:14;;;;;;;22.13;20.20;;;;;;;14.85;73.07;93235.84;5049279;28;20021;-49
2021/07/04 00:22:41;;;;;;;22.35;21.05;;;;;;;14.84;74.18;93233.63;5050334;28;20051;-51
2021/07/04 00:25:08;;;;;;;22.65;21.23;;;;;;;14.70;74.07;93225.00;5049947;28;20147;-49
2021/07/04 00:27:34;;;;;;;22.45;20.95;;;;;;;14.65;74.13;93237.09;5040910;28;20029;-46
2021/07/04 00:29:59;;;;;;;22.40;20.95;;;;;;;14.74;74.02;93239.19;5042786;28;20036;-48
2021/07/04 00:32:25;;;;;;;22.40;21.00;;;;;;;14.78;73.82;93233.94;5041411;28;20057;-49
2021/07/04 00:34:50;;;;;;;22.40;20.50;;;;;;;14.72;74.22;93233.47;5030021;28;20083;-47
2021/07/04 00:37:16;;;;;;;21.83;20.42;;;;;;;14.74;74.29;93230.84;5030400;28;20022;-46
2021/07/04 00:39:41;;;;;;;22.25;20.50;;;;;;;14.72;74.22;93236.25;5040054;28;20029;-47
2021/07/04 00:42:08;;;;;;;22.08;20.52;;;;;;;14.74;74.15;93239.19;5037808;28;20026;-49
2021/07/04 00:44:34;;;;;;;22.65;21.20;;;;;;;14.81;73.67;93238.31;5033075;28;20025;-47
2021/07/04 00:46:59;;;;;;;20.90;19.50;;;;;;;14.73;73.05;93225.84;5045491;28;20045;-48
2021/07/04 00:49:24;;;;;;;20.40;18.90;;;;;;;14.71;73.26;93232.00;5037848;28;20033;-46
2021/07/04 00:51:50;;;;;;;21.17;19.67;;;;;;;14.67;73.52;93220.59;5050049;28;20033;-47
2021/07/04 00:54:15;;;;;;;21.42;20.02;;;;;;;14.68;73.73;93229.66;5034512;28;20132;-46
2021/07/04 00:56:41;;;;;;;22.05;20.63;;;;;;;14.68;73.24;93221.31;5035617;28;20030;-46
2021/07/04 00:59:07;;;;;;;21.08;19.85;;;;;;;14.64;73.48;93221.72;5049791;28;20029;-47
2021/07/04 01:01:34;;;;;;;22.15;20.65;;;;;;;14.61;73.76;93213.84;5039615;28;20108;-47
2021/07/04 01:04:00;;;;;;;21.55;20.00;;;;;;;14.59;73.19;93222.75;5029471;28;20438;-46
2021/07/04 01:06:25;;;;;;;21.80;20.40;;;;;;;14.62;73.12;93215.31;5028162;28;20036;-46
2021/07/04 01:08:50;;;;;;;21.40;19.90;;;;;;;14.54;73.55;93215.44;5029849;28;20051;-46
2021/07/04 01:11:16;;;;;;;20.63;19.33;;;;;;;14.51;73.54;93208.25;5028152;28;20021;-47
2021/07/04 01:13:41;;;;;;;21.83;20.42;;;;;;;14.49;73.90;93221.28;5028750;28;20026;-48
2021/07/04 01:16:07;;;;;;;22.08;20.60;;;;;;;14.57;73.65;93211.50;5028607;28;20030;-49
2021/07/04 01:18:32;;;;;;;21.27;19.88;;;;;;;14.46;73.85;93191.88;5028549;28;20063;-48
2021/07/04 01:20:59;;;;;;;21.25;19.90;;;;;;;14.46;74.43;93202.97;5029863;28;20421;-49
2021/07/04 01:23:24;;;;;;;20.17;18.83;;;;;;;14.40;74.28;93201.19;5029246;28;20059;-48
2021/07/04 01:25:53;;;;;;;22.20;20.60;;;;;;;14.34;74.51;93184.06;5029659;28;20100;-47
2021/07/04 01:28:19;;;;;;;21.00;19.70;;;;;;;14.34;74.49;93192.41;5029564;28;20038;-48
2021/07/04 01:30:49;;;;;;;19.65;18.35;;;;;;;14.36;74.74;93197.38;5029713;28;20090;-47
2021/07/04 01:33:15;;;;;;;21.35;19.85;;;;;;;14.37;74.36;93193.31;5029868;28;20033;-50
2021/07/04 01:35:40;;;;;;;21.73;20.10;;;;;;;14.39;74.20;93194.19;5029519;28;20026;-49
2021/07/04 01:38:06;;;;;;;21.60;20.15;;;;;;;14.32;74.56;93194.28;5029424;28;20037;-48
2021/07/04 01:40:33;;;;;;;20.63;19.15;;;;;;;14.37;74.31;93196.81;5029444;28;20030;-47
2021/07/04 01:42:59;;;;;;;19.17;18.08;;;;;;;14.32;74.63;93197.06;5031098;28;20118;-47
2021/07/04 01:45:25;;;;;;;22.17;20.67;;;;;;;14.26;74.88;93193.81;5049150;28;20666;-48
2021/07/04 01:47:53;;;;;;;22.25;20.75;;;;;;;14.26;74.18;93194.56;5048202;28;20089;-47
2021/07/04 01:50:25;;;;;;;22.48;20.77;;;;;;;14.14;74.63;93195.69;5049498;28;20457;-46
2021/07/04 01:52:51;;;;;;;19.88;18.67;;;;;;;14.14;74.97;93193.59;5049442;28;20036;-48
2021/07/04 01:55:17;;;;;;;21.27;19.52;;;;;;;14.14;74.97;93196.38;5048981;28;20032;-48
2021/07/04 01:57:43;;;;;;;21.08;19.38;;;;;;;14.22;74.38;93190.72;5049423;28;20032;-47
2021/07/04 02:00:14;;;;;;;21.40;20.15;;;;;;;14.17;73.84;93194.50;5049356;28;20025;-46
2021/07/04 02:02:44;;;;;;;20.50;19.20;;;;;;;14.14;74.03;93201.94;5049404;28;20433;-47
2021/07/04 02:05:10;;;;;;;22.05;20.52;;;;;;;14.03;73.58;93185.09;5048960;28;20032;-50
2021/07/04 02:07:35;;;;;;;21.98;20.65;;;;;;;14.05;74.55;93199.13;5049273;28;20123;-48
2021/07/04 02:10:02;;;;;;;21.42;20.17;;;;;;;14.11;73.83;93192.00;5049040;28;20108;-47
2021/07/04 02:12:28;;;;;;;21.92;20.45;;;;;;;14.08;74.22;93195.94;5032753;28;20032;-47
2021/07/04 02:14:54;;;;;;;22.25;20.80;;;;;;;14.07;74.33;93205.59;5028176;28;20037;-47
2021/07/04 02:17:19;;;;;;;21.45;20.17;;;;;;;14.04;74.33;93206.72;5029257;28;20479;-46
2021/07/04 02:19:44;;;;;;;19.80;18.50;;;;;;;14.03;74.03;93210.09;5029279;28;20765;-47
2021/07/04 02:22:11;;;;;;;22.00;20.60;;;;;;;13.96;73.93;93202.59;5028967;28;20112;-48
2021/07/04 02:24:37;;;;;;;20.15;18.95;;;;;;;13.98;73.96;93206.25;5029202;28;20137;-48
2021/07/04 02:27:03;;;;;;;21.58;20.27;;;;;;;13.82;73.54;93182.09;5028936;28;20025;-47
2021/07/04 02:29:29;;;;;;;21.23;20.02;;;;;;;13.94;73.56;93210.75;5028857;28;20750;-46
2021/07/04 02:31:54;;;;;;;20.95;19.55;;;;;;;13.94;73.34;93205.22;5029109;28;20017;-49
2021/07/04 02:34:20;;;;;;;20.52;19.05;;;;;;;13.91;73.31;93215.41;5028893;28;20061;-46
2021/07/04 02:36:45;;;;;;;22.55;21.08;;;;;;;13.93;73.32;93210.03;5028732;28;20033;-48
2021/07/04 02:39:13;;;;;;;21.48;20.15;;;;;;;13.85;73.97;93214.22;5028955;28;20033;-46
2021/07/04 02:41:43;;;;;;;21.20;19.80;;;;;;;13.85;73.61;93212.19;5028799;28;20512;-47
2021/07/04 02:44:09;;;;;;;;;;;;;;;13.80;73.98;93215.19;5043531;28;20216;-46
2021/07/04 02:46:34;;;;;;;20.95;19.65;;;;;;;13.76;74.14;93214.88;5052195;28;19916;-47
2021/07/04 02:49:00;;;;;;;19.55;18.35;;;;;;;13.76;74.69;93214.88;5052498;28;20057;-46
2021/07/04 02:51:26;;;;;;;20.88;19.48;;;;;;;13.82;73.71;93218.16;5052212;28;20040;-48
2021/07/04 02:53:51;;;;;;;20.73;19.48;;;;;;;13.84;73.92;93210.00;5052129;28;20025;-47
2021/07/04 02:56:16;;;;;;;22.55;20.83;;;;;;;13.91;74.39;93215.41;5052004;28;20033;-48
2021/07/04 02:58:42;;;;;;;21.33;19.73;;;;;;;13.85;73.93;93208.66;5052073;28;20036;-46
2021/07/04 03:01:07;;;;;;;22.45;20.70;;;;;;;13.87;73.56;93217.88;5051939;28;20075;-50
2021/07/04 03:03:33;;;;;;;20.77;19.48;;;;;;;13.73;73.48;93199.41;5051827;28;20036;-50
2021/07/04 03:05:58;;;;;;;22.25;20.80;;;;;;;13.87;73.54;93219.94;5051861;28;20094;-49
2021/07/04 03:08:24;;;;;;;21.52;19.77;;;;;;;13.76;74.05;93217.66;5052143;28;20025;-49
2021/07/04 03:10:49;;;;;;;54.92;49.22;;;;;;;13.76;74.03;93217.66;5049457;28;20453;-48
2021/07/04 03:13:15;;;;;;;102.07;92.45;;;;;;;13.78;74.51;93231.69;5031799;28;20053;-51
2021/07/04 03:15:40;;;;;;;21.15;19.70;;;;;;;13.78;74.53;93224.13;5031760;28;20029;-52
2021/07/04 03:18:06;;;;;;;20.90;19.50;;;;;;;13.77;74.90;93217.13;5032010;28;20057;-52
2021/07/04 03:20:32;;;;;;;21.27;19.98;;;;;;;13.47;74.51;93187.00;5032041;28;20053;-49
2021/07/04 03:22:57;;;;;;;19.63;18.33;;;;;;;13.85;74.45;93233.66;5031688;28;20030;-49
2021/07/04 03:25:22;;;;;;;22.27;20.83;;;;;;;13.84;74.19;93232.19;5031666;28;20099;-50
2021/07/04 03:27:48;;;;;;;21.77;19.98;;;;;;;13.88;73.99;93236.00;5031572;28;20033;-48
2021/07/04 03:30:16;;;;;;;21.42;19.77;;;;;;;13.91;74.36;93234.84;5030630;28;20041;-46
2021/07/04 03:32:42;;;;;;;22.23;20.83;;;;;;;13.93;73.54;93246.09;5031205;28;20180;-47
2021/07/04 03:35:10;;;;;;;21.23;19.48;;;;;;;13.95;73.91;93242.75;5031272;28;20692;-46
2021/07/04 03:37:36;;;;;;;21.63;20.00;;;;;;;13.91;74.24;93234.09;5031433;28;20049;-46
2021/07/04 03:40:06;;;;;;;19.65;18.33;;;;;;;13.92;74.49;93250.22;5031416;28;20506;-45
2021/07/04 03:42:32;;;;;;;20.25;19.05;;;;;;;14.03;74.65;93252.47;5031402;28;20659;-48
2021/07/04 03:44:57;;;;;;;21.63;19.52;;;;;;;14.08;75.13;93259.03;5031391;28;20052;-46
2021/07/04 03:47:25;;;;;;;19.35;18.17;;;;;;;14.09;75.01;93247.38;5031548;28;20044;-46
2021/07/04 03:49:51;;;;;;;22.60;21.10;;;;;;;14.15;74.62;93256.16;5031700;28;20037;-47
2021/07/04 03:52:17;;;;;;;19.98;18.65;;;;;;;14.15;74.62;93255.44;5031223;28;20025;-47
2021/07/04 03:54:42;;;;;;;20.35;19.05;;;;;;;14.12;74.51;93260.09;5031403;28;20032;-46
2021/07/04 03:57:23;;;;;;;21.80;20.30;;;;;;;14.18;74.58;93257.06;5030985;28;20034;-46
2021/07/04 03:59:56;;;;;;;22.67;20.88;;;;;;;14.20;74.46;93257.22;5031309;28;20045;-48
2021/07/04 04:02:22;;;;;;;20.20;18.80;;;;;;;14.24;74.78;93257.53;5030969;28;20560;-48
2021/07/04 04:04:48;;;;;;;19.08;17.65;;;;;;;14.20;75.37;93255.19;5030911;28;20025;-49
2021/07/04 04:07:14;;;;;;;19.98;18.60;;;;;;;14.25;75.82;93256.22;5030903;28;20032;-47
2021/07/04 04:09:39;;;;;;;21.65;19.98;;;;;;;14.26;75.67;93263.22;5031099;28;20029;-50
2021/07/04 04:12:05;;;;;;;19.50;18.20;;;;;;;14.33;75.34;93267.97;5030718;28;20033;-47
2021/07/04 04:14:32;;;;;;;18.77;17.48;;;;;;;14.31;76.14;93260.22;5031020;28;20076;-48
2021/07/04 04:16:57;;;;;;;19.30;18.00;;;;;;;14.26;77.02;93266.00;5030584;28;20080;-48
2021/07/04 04:19:23;;;;;;;20.63;19.23;;;;;;;14.25;77.97;93265.28;5030622;28;20030;-48
2021/07/04 04:21:48;;;;;;;19.88;18.58;;;;;;;14.33;77.97;93268.72;5030512;28;20033;-48
2021/07/04 04:24:14;;;;;;;19.25;18.05;;;;;;;14.50;78.06;93262.34;5030543;28;20034;-51
2021/07/04 04:26:39;;;;;;;20.08;18.58;;;;;;;14.62;77.54;93268.81;5030333;28;20036;-46
2021/07/04 04:29:05;;;;;;;19.10;17.92;;;;;;;14.65;77.78;93269.72;5030431;28;20033;-48
2021/07/04 04:31:30;;;;;;;19.15;18.00;;;;;;;14.76;77.54;93264.34;5030352;28;20029;-48
2021/07/04 04:33:56;;;;;;;19.48;18.27;;;;;;;14.78;76.96;93261.72;5030359;28;20033;-49
2021/07/04 04:36:21;;;;;;;19.30;17.77;;;;;;;14.90;76.65;93261.91;5030110;28;20037;-47
2021/07/04 04:38:46;;;;;;;19.77;18.38;;;;;;;14.95;77.15;93269.22;5030177;28;20029;-47
2021/07/04 04:41:12;;;;;;;18.33;17.13;;;;;;;14.99;77.40;93269.50;5030405;28;20029;-46
2021/07/04 04:43:37;;;;;;;20.40;18.67;;;;;;;15.03;77.45;93267.03;5029909;28;20498;-49
2021/07/04 04:46:03;;;;;;;19.70;18.40;;;;;;;15.09;77.38;93268.22;5029468;28;20049;-48
2021/07/04 04:48:28;;;;;;;18.33;17.15;;;;;;;15.17;77.92;93259.75;5029774;28;20481;-48
2021/07/04 04:50:54;;;;;;;19.02;17.83;;;;;;;15.16;77.02;93256.22;5030280;28;20506;-49
2021/07/04 04:53:19;;;;;;;22.70;21.27;;;;;;;15.27;77.17;93265.34;5029939;28;20454;-49
2021/07/04 04:55:45;;;;;;;19.08;17.52;;;;;;;15.34;77.28;93267.22;5029805;28;20083;-49
2021/07/04 04:58:11;;;;;;;19.40;18.17;;;;;;;15.35;77.52;93263.13;5030154;28;20029;-48
2021/07/04 05:00:36;;;;;;;20.73;18.77;;;;;;;15.42;77.51;93270.63;5029827;28;20026;-49
2021/07/04 05:03:07;;;;;;;20.10;18.73;;;;;;;15.42;77.36;93262.97;5030115;28;20021;-48
2021/07/04 05:05:34;;;;;;;19.17;18.05;;;;;;;15.55;77.53;93264.66;5029745;28;20045;-47
2021/07/04 05:07:59;;;;;;;20.15;18.83;;;;;;;15.57;77.06;93271.06;5030059;28;20022;-47
2021/07/04 05:10:25;;;;;;;23.63;22.20;;;;;;;15.66;76.48;93266.81;5029765;28;20432;-47
2021/07/04 05:12:50;;;;;;;25.13;23.33;;;;;;;15.68;75.75;93275.34;5029362;28;20029;-48
2021/07/04 05:15:16;;;;;;;26.20;24.52;;;;;;;15.71;75.48;93279.72;5029492;28;20038;-48
2021/07/04 05:17:41;;;;;;;26.58;24.83;;;;;;;15.77;74.79;93271.78;5029620;28;20026;-47
2021/07/04 05:20:07;;;;;;;26.08;24.50;;;;;;;15.72;74.85;93283.97;5029863;28;20033;-47
2021/07/04 05:22:34;;;;;;;22.17;20.65;;;;;;;15.72;73.92;93259.63;5029864;28;20120;-48
2021/07/04 05:25:00;;;;;;;21.50;20.23;;;;;;;15.83;73.34;93284.09;5029737;28;20036;-48
2021/07/04 05:27:25;;;;;;;21.83;20.42;;;;;;;15.91;73.86;93292.31;5022364;28;20414;-47
2021/07/04 05:29:51;;;;;;;25.30;23.83;;;;;;;15.95;74.44;93300.94;5028188;28;20037;-48
2021/07/04 05:32:16;;;;;;;21.50;20.20;;;;;;;15.89;73.88;93283.81;5027866;28;20017;-48
2021/07/04 05:34:41;;;;;;;25.73;24.10;;;;;;;16.13;73.35;93302.25;5028405;28;20022;-47
2021/07/04 05:37:07;;;;;;;24.98;23.35;;;;;;;16.17;73.45;93301.81;5027708;28;20407;-48
2021/07/04 05:39:32;;;;;;;24.30;22.67;;;;;;;16.22;73.20;93303.56;5028256;28;20057;-49
2021/07/04 05:41:58;;;;;;;30.38;28.75;;;;;;;16.23;72.36;93300.19;5027722;28;20041;-51
2021/07/04 05:44:23;;;;;;;25.08;23.67;;;;;;;16.34;72.99;93298.84;5042232;28;20087;-47
2021/07/04 05:46:49;;;;;;;21.55;20.45;;;;;;;16.31;73.92;93306.31;5049150;28;20526;-48
2021/07/04 05:49:15;;;;;;;24.33;22.95;;;;;;;16.26;73.44;93301.81;5049427;28;20036;-50
2021/07/04 05:51:41;;;;;;;25.88;24.48;;;;;;;16.32;73.37;93299.44;5049450;28;20104;-49
2021/07/04 05:54:07;;;;;;;26.98;25.10;;;;;;;16.32;72.94;93288.28;5048526;28;20049;-48
2021/07/04 05:56:32;;;;;;;26.45;24.98;;;;;;;16.40;73.31;93304.81;5049209;28;20029;-51
2021/07/04 05:58:59;;;;;;;31.00;29.40;;;;;;;16.39;72.76;93289.44;5049206;28;20032;-49
2021/07/04 06:01:24;;;;;;;30.05;28.50;;;;;;;16.54;72.78;93308.63;5048542;28;20028;-50
2021/07/04 06:03:50;;;;;;;30.40;28.70;;;;;;;16.64;72.99;93298.19;5048684;28;20107;-50
2021/07/04 06:06:15;;;;;;;31.75;30.15;;;;;;;16.71;72.04;93285.41;5049336;28;20025;-47
2021/07/04 06:08:41;;;;;;;32.75;31.15;;;;;;;16.81;71.71;93288.88;5049280;28;20409;-47
2021/07/04 06:11:06;;;;;;;32.78;30.67;;;;;;;16.84;71.83;93284.91;5044100;28;20494;-48
2021/07/04 06:13:32;;;;;;;31.85;30.08;;;;;;;16.86;72.22;93280.19;5029318;28;20032;-50
2021/07/04 06:15:57;;;;;;;151.88;110.07;;;;;;;16.92;71.28;93286.19;5029058;28;20480;-48
2021/07/04 06:18:23;;;;;;;30.35;28.63;;;;;;;16.98;71.00;93283.78;5031211;28;20110;-49
2021/07/04 06:20:48;;;;;;;33.42;31.70;;;;;;;17.09;72.01;93290.78;5033099;28;20029;-49
2021/07/04 06:23:14;;;;;;;33.22;31.33;;;;;;;17.15;71.94;93283.56;5032930;28;20045;-51
2021/07/04 06:25:39;;;;;;;28.00;26.52;;;;;;;17.17;70.05;93261.38;5032994;28;20025;-48
2021/07/04 06:28:05;;;;;;;31.40;29.67;;;;;;;17.22;71.87;93281.91;5032780;28;20048;-49
2021/07/04 06:30:30;;;;;;;27.15;25.65;;;;;;;17.24;70.96;93273.66;5033004;28;20040;-48
2021/07/04 06:32:56;;;;;;;26.58;25.08;;;;;;;17.24;70.76;93274.41;5032861;28;20505;-51
2021/07/04 06:35:21;;;;;;;26.85;25.45;;;;;;;17.35;69.89;93278.59;5032859;28;20100;-49
2021/07/04 06:37:47;;;;;;;28.88;27.27;;;;;;;17.44;69.97;93270.16;5032626;28;20508;-49
2021/07/04 06:40:13;;;;;;;28.38;26.77;;;;;;;17.53;70.56;93281.88;5032754;28;20461;-49
2021/07/04 06:42:39;;;;;;;27.92;26.50;;;;;;;17.59;70.50;93274.63;5032724;28;20480;-49
2021/07/04 06:45:06;;;;;;;26.95;25.52;;;;;;;17.63;70.29;93268.59;5032174;28;20057;-50
2021/07/04 06:47:32;;;;;;;27.17;25.52;;;;;;;17.70;69.14;93273.22;5032762;28;20036;-50
2021/07/04 06:49:57;;;;;;;27.45;25.95;;;;;;;17.59;69.20;93251.56;5032590;28;20025;-50
2021/07/04 06:52:23;;;;;;;28.00;26.55;;;;;;;17.79;69.50;93264.03;5032295;28;20029;-49
2021/07/04 06:54:48;;;;;;;33.85;31.85;;;;;;;17.81;68.68;93258.59;5032489;28;20117;-48
2021/07/04 06:57:26;;;;;;;34.50;32.72;;;;;;;17.93;69.13;93265.69;5032075;28;20044;-50
2021/07/04 06:59:52;;;;;;;26.23;24.23;;;;;;;18.00;68.57;93261.19;5032536;28;20059;-48
2021/07/04 07:02:18;;;;;;;21.65;20.45;;;;;;;18.07;67.54;93257.47;5032096;28;20129;-52
2021/07/04 07:04:43;;;;;;;24.95;23.55;;;;;;;18.11;68.75;93254.94;5031481;28;20037;-47
2021/07/04 07:07:08;;;;;;;21.30;20.00;;;;;;;18.10;66.92;93243.00;5030290;28;20083;-46
2021/07/04 07:09:34;;;;;;;22.02;20.73;;;;;;;18.31;67.59;93247.81;5030331;28;20026;-51
2021/07/04 07:11:59;;;;;;;21.38;20.25;;;;;;;18.46;67.02;93246.66;5029872;28;20021;-47
2021/07/04 07:14:25;;;;;;;20.88;19.48;;;;;;;18.55;66.61;93237.44;5030107;28;20030;-51
2021/07/04 07:16:50;;;;;;;21.02;19.83;;;;;;;18.59;66.14;93229.28;5029555;28;20108;-51
2021/07/04 07:19:16;;;;;;;22.85;21.45;;;;;;;18.72;66.26;93235.00;5031127;28;20509;-49
2021/07/04 07:21:42;;;;;;;21.23;20.08;;;;;;;18.87;65.69;93237.31;5031968;28;20494;-51
2021/07/04 07:24:08;;;;;;;21.15;19.88;;;;;;;18.90;65.42;93219.31;5031965;28;20414;-47
2021/07/04 07:26:34;;;;;;;19.15;18.05;;;;;;;19.25;64.46;93232.53;5032147;28;20037;-47
2021/07/04 07:28:59;;;;;;;20.58;19.27;;;;;;;19.47;64.29;93228.97;5024283;28;20029;-48
2021/07/04 07:31:24;;;;;;;19.70;18.50;;;;;;;19.67;63.96;93230.13;5026643;28;20029;-48
2021/07/04 07:33:50;;;;;;;17.25;16.27;;;;;;;19.94;62.81;93226.03;5031613;28;20030;-49
2021/07/04 07:36:15;;;;;;;15.65;14.70;;;;;;;20.25;61.12;93226.34;5031925;28;20091;-50
2021/07/04 07:38:41;;;;;;;13.23;12.10;;;;;;;20.63;60.49;93227.72;5031469;28;20025;-50
2021/07/04 07:41:06;;;;;;;11.60;10.73;;;;;;;21.05;59.45;93216.66;5031696;28;20026;-50
2021/07/04 07:43:32;;;;;;;12.00;10.95;;;;;;;21.41;58.62;93219.88;5037014;28;20029;-50
2021/07/04 07:45:57;;;;;;;10.70;9.98;;;;;;;21.61;57.63;93218.09;5049004;28;20132;-49
2021/07/04 07:48:23;;;;;;;8.73;8.13;;;;;;;21.88;56.00;93220.84;5009219;28;20061;-49
2021/07/04 07:50:48;;;;;;;8.90;8.10;;;;;;;22.10;54.19;93215.56;5022499;28;20144;-54
2021/07/04 07:53:14;;;;;;;9.63;9.02;;;;;;;22.29;53.96;93217.88;5029172;28;20021;-51
2021/07/04 07:55:40;;;;;;;10.60;8.38;;;;;;;22.51;54.70;93210.47;5013198;28;20494;-54
2021/07/04 07:58:05;;;;;;;8.20;7.53;;;;;;;22.67;51.63;93214.06;5009404;28;20038;-48
2021/07/04 08:00:30;;;;;;;7.45;6.85;;;;;;;22.75;51.95;93220.06;5011598;28;20044;-48
2021/07/04 08:02:56;;;;;;;10.68;8.20;;;;;;;22.82;52.66;93212.63;5009484;28;20479;-50
2021/07/04 08:05:22;;;;;;;9.57;8.88;;;;;;;22.71;50.78;93210.69;5009256;28;20030;-53
2021/07/04 08:07:47;;;;;;;8.30;7.70;;;;;;;22.74;53.07;93215.78;5009183;28;20034;-52
2021/07/04 08:10:13;;;;;;;10.48;7.53;;;;;;;23.00;52.50;93216.25;5008787;28;20044;-51
2021/07/04 08:12:40;;;;;;;8.00;7.22;;;;;;;23.29;52.08;93216.84;5026122;28;20136;-55
2021/07/04 08:15:06;;;;;;;7.22;6.53;;;;;;;23.63;48.57;93220.41;5028338;28;20025;-49
2021/07/04 08:17:32;;;;;;;8.20;7.35;;;;;;;23.77;48.55;93209.75;5028471;28;20025;-53
2021/07/04 08:19:57;;;;;;;6.22;5.80;;;;;;;23.80;49.24;93205.63;5028736;28;20084;-55
2021/07/04 08:22:23;;;;;;;7.65;6.95;;;;;;;23.64;49.63;93202.16;5028552;28;20466;-51
2021/07/04 08:24:48;;;;;;;9.20;8.27;;;;;;;23.27;50.15;93201.94;5027903;28;20561;-52
2021/07/04 08:27:14;;;;;;;9.73;8.77;;;;;;;22.98;52.12;93202.06;5028883;28;20665;-53
2021/07/04 08:29:39;;;;;;;8.95;7.55;;;;;;;22.73;52.76;93205.16;5028736;28;20109;-49
2021/07/04 08:32:05;;;;;;;15.70;9.05;;;;;;;22.31;53.88;93187.75;5028150;28;20464;-48
2021/07/04 08:34:31;;;;;;;7.90;7.30;;;;;;;22.16;54.61;93201.78;5028019;28;20056;-50
2021/07/04 08:36:56;;;;;;;10.18;9.00;;;;;;;21.95;54.36;93188.13;5026870;28;20084;-51
2021/07/04 08:39:21;;;;;;;10.00;9.00;;;;;;;21.83;55.45;93205.13;5028193;28;20048;-46
2021/07/04 08:41:48;;;;;;;9.00;8.40;;;;;;;21.76;56.67;93201.28;5027806;28;20036;-50
2021/07/04 08:44:14;;;;;;;16.85;10.00;;;;;;;22.07;57.69;93195.06;5027816;28;20037;-52
2021/07/04 08:46:44;;;;;;;10.82;7.38;;;;;;;22.42;54.05;93194.56;5027500;28;20537;-49
2021/07/04 08:49:12;;;;;;;7.75;7.15;;;;;;;22.75;54.70;93194.00;5028340;28;20040;-48
2021/07/04 08:51:37;;;;;;;8.70;7.90;;;;;;;22.87;52.27;93189.63;5028148;28;20075;-49
2021/07/04 08:54:03;;;;;;;8.63;7.50;;;;;;;23.14;52.35;93188.69;5028142;28;20068;-48
2021/07/04 08:56:28;;;;;;;6.95;6.45;;;;;;;23.00;51.88;93188.09;5028056;28;20033;-50
2021/07/04 08:58:54;;;;;;;10.15;7.53;;;;;;;22.97;53.02;93189.34;5027533;28;20079;-48
2021/07/04 09:01:21;;;;;;;7.75;6.97;;;;;;;23.34;51.20;93183.97;5027612;28;20029;-48
2021/07/04 09:03:49;;;;;;;6.97;6.47;;;;;;;23.66;50.46;93190.97;5026297;28;20530;-53
2021/07/04 09:06:35;;;;;;;8.05;6.53;;;;;;;23.84;49.62;93188.91;5027120;28;20083;-52
2021/07/04 09:09:21;;;;;;;6.95;6.40;;;;;;;23.68;49.19;93193.84;5027454;28;20035;-54
2021/07/04 09:11:58;;;;;;;7.20;6.50;;;;;;;23.34;49.65;93193.16;5027019;28;20124;-52
2021/07/04 09:14:46;;;;;;;14.52;8.43;;;;;;;23.17;51.39;93188.13;5027694;28;20044;-46
2021/07/04 09:17:14;;;;;;;10.38;8.57;;;;;;;23.03;51.71;93190.34;5027474;28;20037;-46
2021/07/04 09:19:51;;;;;;;8.73;7.70;;;;;;;23.26;51.37;93187.13;5027703;28;20571;-50
2021/07/04 09:22:16;;;;;;;10.48;7.03;;;;;;;24.31;50.50;93179.47;5026976;28;20037;-48
2021/07/04 09:24:43;;;;;;;7.90;7.32;;;;;;;25.23;47.77;93182.94;5025146;28;20056;-53
2021/07/04 09:27:13;;;;;;;5.35;4.95;;;;;;;25.90;45.40;93177.50;5027630;28;20037;-54
2021/07/04 09:29:54;;;;;;;5.40;4.90;;;;;;;26.87;42.92;93172.81;5027983;28;20030;-56
2021/07/04 09:32:22;;;;;;;4.60;4.20;;;;;;;27.82;38.23;93163.34;5027484;28;20024;-54
2021/07/04 09:35:15;;;;;;;6.40;4.30;;;;;;;27.89;38.25;93159.28;5027540;28;20030;-54
2021/07/04 09:37:48;;;;;;;5.40;4.10;;;;;;;28.25;35.72;93160.19;5026996;28;20749;-53
2021/07/04 09:40:25;;;;;;;4.95;4.30;;;;;;;29.27;35.31;93163.91;5028605;28;20031;-52
2021/07/04 09:43:04;;;;;;;6.95;3.35;;;;;;;29.01;33.45;93159.09;5029925;28;20030;-53
2021/07/04 09:45:52;;;;;;;5.35;4.00;;;;;;;28.61;36.00;93166.03;5049310;28;20052;-53
2021/07/04 09:48:28;;;;;;;4.13;3.73;;;;;;;27.94;34.48;93172.88;5049467;28;20029;-57
2021/07/04 09:50:55;;;;;;;4.55;4.15;;;;;;;27.14;36.15;93168.59;5049526;28;20480;-54
2021/07/04 09:53:22;;;;;;;5.13;3.97;;;;;;;26.38;37.51;93172.00;5053174;28;20029;-54
2021/07/04 09:55:51;;;;;;;6.05;5.32;;;;;;;25.58;39.00;93162.28;5053155;28;20029;-55
2021/07/04 09:58:17;;;;;;;6.45;4.78;;;;;;;25.29;40.43;93180.38;5053520;28;20101;-53
2021/07/04 10:00:44;;;;;;;5.05;4.65;;;;;;;24.99;42.76;93170.06;5053142;28;20025;-51
2021/07/04 10:03:17;;;;;;;6.07;4.72;;;;;;;24.67;42.50;93170.28;5053412;28;20025;-51
2021/07/04 10:05:55;;;;;;;11.15;8.95;;;;;;;24.29;43.82;93171.66;5053076;28;20032;-55
2021/07/04 10:08:29;;;;;;;9.55;6.35;;;;;;;24.00;45.29;93169.78;5041232;28;20049;-47
2021/07/04 10:11:06;;;;;;;9.43;7.25;;;;;;;23.86;45.83;93166.41;5032950;28;20449;-50
2021/07/04 10:13:36;;;;;;;7.25;6.40;;;;;;;23.81;44.12;93156.34;5033331;28;20021;-48
2021/07/04 10:16:02;;;;;;;18.90;7.25;;;;;;;23.81;46.74;93152.78;5033142;28;20084;-51
2021/07/04 10:18:28;;;;;;;7.28;6.57;;;;;;;23.96;46.57;93151.97;5033309;28;20021;-49
2021/07/04 10:20:54;;;;;;;6.75;6.25;;;;;;;23.93;46.73;93148.34;5033168;28;20518;-50
2021/07/04 10:23:25;;;;;;;7.07;6.47;;;;;;;23.83;45.55;93145.13;5032849;28;20033;-53
2021/07/04 10:25:52;;;;;;;6.65;6.25;;;;;;;23.75;46.51;93147.63;5033122;28;20017;-50
2021/07/04 10:28:27;;;;;;;6.80;6.20;;;;;;;23.69;45.90;93144.56;5032574;28;20032;-55
2021/07/04 10:30:53;;;;;;;7.10;6.00;;;;;;;23.54;45.81;93142.53;5031794;28;20108;-55
2021/07/04 10:33:22;;;;;;;7.05;6.45;;;;;;;23.49;47.21;93140.94;5030199;28;20025;-53
2021/07/04 10:36:02;;;;;;;10.73;6.10;;;;;;;23.71;47.83;93144.66;5031716;28;20372;-53
2021/07/04 10:38:57;;;;;;;6.57;5.97;;;;;;;24.67;44.74;93144.88;5030133;28;20033;-53
2021/07/04 10:41:29;;;;;;;5.38;4.97;;;;;;;25.60;44.25;93128.41;5029220;28;20104;-56
2021/07/04 10:44:05;;;;;;;5.75;4.57;;;;;;;26.51;40.03;93129.22;5032201;28;20021;-49
2021/07/04 10:49:13;;;;;;;5.35;4.53;;;;;;;28.34;37.86;93119.97;5029624;28;20025;-54
2021/07/04 10:52:16;;;;;;;3.70;3.40;;;;;;;28.87;34.72;93126.81;5031444;28;20696;-51
2021/07/04 10:54:47;;;;;;;4.90;3.35;;;;;;;28.46;33.12;93128.75;5026216;28;20037;-57
2021/07/04 10:57:35;;;;;;;4.47;3.50;;;;;;;27.79;34.28;93129.25;5031060;28;20017;-55
2021/07/04 11:00:04;;;;;;;3.50;3.20;;;;;;;27.29;34.84;93121.53;5028652;28;20056;-54
2021/07/04 11:02:54;;;;;;;;;;;;;;;26.87;37.28;93119.00;5031642;28;20034;-56
2021/07/04 11:05:35;;;;;;;6.93;4.55;;;;;;;26.46;37.55;93119.16;5030342;28;20382;-56
2021/07/04 11:08:39;;;;;;;5.47;4.97;;;;;;;26.42;37.39;93116.22;5028580;28;20029;-54
2021/07/04 11:11:07;;;;;;;36.63;16.30;;;;;;;26.60;38.36;93113.19;5008507;28;20029;-56
2021/07/04 11:13:46;;;;;;;10.57;4.90;;;;;;;26.56;38.31;93113.06;5026369;28;20033;-55
2021/07/04 11:16:14;;;;;;;5.72;4.88;;;;;;;26.74;38.40;93100.19;5030882;28;20029;-54
2021/07/04 11:18:50;;;;;;;5.22;4.70;;;;;;;26.95;36.94;93107.88;5030781;28;20100;-55
2021/07/04 11:21:19;;;;;;;4.70;3.95;;;;;;;27.02;36.03;93103.81;5028676;28;20051;-54
2021/07/04 11:23:44;;;;;;;4.43;3.97;;;;;;;26.99;38.52;93095.91;5031590;28;20112;-55
2021/07/04 11:26:15;;;;;;;5.90;5.30;;;;;;;26.66;38.56;93097.09;5031614;28;20109;-55